Time;durP1;ratioP1;P1;durP2;ratioP2;P2;SDS_P1;SDS_P2;PMS_P1;PMS_P2;Temp;Humidity;BMP_temperature;BMP_pressure;BME280_temperature;BME280_humidity;BME280_pressure;Samples;Min_cycle;Max_cycle;Signal;HPM_P1;HPM_P2
2022/11/22 00:00:42;;;;;;;6.40;0.57;;;10.90;99.90;;;;;;5020389;28;20056;-75
2022/11/22 00:03:08;;;;;;;4.20;0.40;;;10.90;99.90;;;;;;5018854;28;20034;-74
2022/11/22 00:05:35;;;;;;;1.15;0.35;;;10.90;99.90;;;;;;5020025;28;20087;-75
2022/11/22 00:08:02;;;;;;;1.73;0.40;;;10.80;99.90;;;;;;5025882;28;20044;-74
2022/11/22 00:10:28;;;;;;;;;;;10.80;99.90;;;;;;5022039;28;20048;-74
2022/11/22 00:12:53;;;;;;;4.93;0.30;;;10.80;99.90;;;;;;5022979;28;20439;-74
2022/11/22 00:15:25;;;;;;;2.17;0.38;;;10.80;99.90;;;;;;5019544;28;20095;-74
2022/11/22 00:17:51;;;;;;;0.98;0.28;;;10.80;99.90;;;;;;5024958;28;20045;-73
2022/11/22 00:20:17;;;;;;;2.03;0.30;;;10.70;99.90;;;;;;5023349;28;20091;-74
2022/11/22 00:22:43;;;;;;;0.80;0.20;;;10.70;99.90;;;;;;5023077;28;20050;-74
2022/11/22 00:25:09;;;;;;;1.83;0.32;;;10.70;99.90;;;;;;5019856;28;20026;-74
2022/11/22 00:27:35;;;;;;;2.38;0.45;;;10.70;99.90;;;;;;5023423;28;20063;-74
2022/11/22 00:30:01;;;;;;;0.98;0.28;;;10.60;99.90;;;;;;5022578;28;20045;-74
2022/11/22 00:32:26;;;;;;;2.33;0.40;;;10.60;99.90;;;;;;5017226;28;20037;-75
2022/11/22 00:34:52;;;;;;;5.80;0.65;;;10.60;99.90;;;;;;5020342;28;20099;-74
2022/11/22 00:37:19;;;;;;;1.27;0.38;;;10.60;99.90;;;;;;5020001;28;20119;-74
2022/11/22 00:39:45;;;;;;;2.58;0.43;;;10.50;99.90;;;;;;5018041;28;20045;-74
2022/11/22 00:42:10;;;;;;;3.70;0.57;;;10.50;99.90;;;;;;5018711;28;20125;-74
2022/11/22 00:44:36;;;;;;;2.80;1.05;;;10.50;99.90;;;;;;5032954;28;20400;-74
2022/11/22 00:47:02;;;;;;;2.15;0.30;;;10.50;99.90;;;;;;5024787;28;20454;-74
2022/11/22 00:49:28;;;;;;;2.00;0.85;;;10.50;99.90;;;;;;5019787;28;20409;-74
2022/11/22 00:51:53;;;;;;;2.50;0.68;;;10.50;99.90;;;;;;5019092;28;20378;-74
2022/11/22 00:54:19;;;;;;;1.77;0.20;;;10.50;99.90;;;;;;5021595;28;20048;-73
2022/11/22 00:56:45;;;;;;;3.35;0.55;;;10.50;99.90;;;;;;5021377;28;20040;-75
2022/11/22 00:59:11;;;;;;;2.28;0.57;;;10.50;99.90;;;;;;5018073;28;20064;-74
2022/11/22 01:01:39;;;;;;;1.90;0.50;;;10.50;99.90;;;;;;5015012;28;20346;-73
2022/11/22 01:04:05;;;;;;;3.80;0.50;;;10.50;99.90;;;;;;5024715;28;20041;-74
2022/11/22 01:06:31;;;;;;;2.78;0.47;;;10.50;99.90;;;;;;5023217;28;20060;-72
2022/11/22 01:08:56;;;;;;;3.35;0.32;;;10.50;99.90;;;;;;5018790;28;20044;-74
2022/11/22 01:11:22;;;;;;;2.38;0.40;;;10.40;99.90;;;;;;5034713;28;20038;-75
2022/11/22 01:13:48;;;;;;;2.83;0.40;;;10.40;99.90;;;;;;5018061;28;20038;-73
2022/11/22 01:16:15;;;;;;;2.05;0.40;;;10.40;99.90;;;;;;5024744;28;20034;-74
2022/11/22 01:18:41;;;;;;;2.28;0.60;;;10.40;99.90;;;;;;5020572;28;20497;-75
2022/11/22 01:21:07;;;;;;;1.05;0.30;;;10.40;99.90;;;;;;5023855;28;20045;-74
2022/11/22 01:23:33;;;;;;;1.65;0.40;;;10.30;99.90;;;;;;5017908;28;20054;-74
2022/11/22 01:25:59;;;;;;;5.05;0.30;;;10.30;99.90;;;;;;5017949;28;20508;-73
2022/11/22 01:28:26;;;;;;;2.78;0.30;;;10.30;99.90;;;;;;5024940;28;20052;-74
2022/11/22 01:30:52;;;;;;;2.20;0.60;;;10.30;99.90;;;;;;5023113;28;20558;-74
2022/11/22 01:33:19;;;;;;;2.35;0.40;;;10.30;99.90;;;;;;5018590;28;20040;-74
2022/11/22 01:35:45;;;;;;;1.20;0.40;;;10.30;99.90;;;;;;5015529;28;20517;-74
2022/11/22 01:38:11;;;;;;;2.05;0.30;;;10.20;99.90;;;;;;5008813;28;20103;-73
2022/11/22 01:40:37;;;;;;;2.08;0.40;;;10.20;99.90;;;;;;5018380;28;20084;-74
2022/11/22 01:43:03;;;;;;;4.97;0.38;;;10.20;99.90;;;;;;5015913;28;20040;-74
2022/11/22 01:45:29;;;;;;;3.05;0.60;;;10.20;99.90;;;;;;5037680;28;20433;-73
2022/11/22 01:48:02;;;;;;;1.50;0.30;;;10.20;99.90;;;;;;5018799;28;20040;-73
2022/11/22 01:50:32;;;;;;;1.35;0.30;;;10.20;99.90;;;;;;5018700;28;20124;-74
2022/11/22 01:53:05;;;;;;;2.38;0.50;;;10.20;99.90;;;;;;5021738;28;20376;-74
2022/11/22 01:55:32;;;;;;;2.70;0.30;;;10.10;99.90;;;;;;5016470;28;20034;-74
2022/11/22 01:57:59;;;;;;;1.88;0.35;;;10.10;99.90;;;;;;5020238;28;20037;-74
2022/11/22 02:00:25;;;;;;;2.55;0.30;;;10.10;99.90;;;;;;5022312;28;20040;-74
2022/11/22 02:02:56;;;;;;;1.63;0.30;;;10.10;99.90;;;;;;5017338;28;20705;-74
2022/11/22 02:05:29;;;;;;;2.40;0.20;;;10.10;99.90;;;;;;5020798;28;20080;-73
2022/11/22 02:07:58;;;;;;;2.80;0.47;;;10.00;99.90;;;;;;5021672;28;20148;-73
2022/11/22 02:10:27;;;;;;;2.72;0.82;;;10.10;99.90;;;;;;5018848;28;20041;-74
2022/11/22 02:12:56;;;;;;;1.42;0.22;;;10.00;99.90;;;;;;5027241;28;20496;-73
2022/11/22 02:15:22;;;;;;;2.08;0.30;;;10.00;99.90;;;;;;5025136;28;20531;-74
2022/11/22 02:17:48;;;;;;;3.03;0.30;;;10.00;99.90;;;;;;5020587;28;20037;-74
2022/11/22 02:20:16;;;;;;;1.70;0.30;;;10.00;99.90;;;;;;5019697;28;20053;-73
2022/11/22 02:22:56;;;;;;;3.35;0.40;;;9.90;99.90;;;;;;5021308;28;20046;-75
2022/11/22 02:25:23;;;;;;;2.58;0.25;;;9.90;99.90;;;;;;5020083;28;20097;-73
2022/11/22 02:27:49;;;;;;;3.70;0.45;;;9.80;99.90;;;;;;5021471;28;20045;-75
2022/11/22 02:30:16;;;;;;;1.95;0.30;;;9.70;99.90;;;;;;5019110;28;20562;-74
2022/11/22 02:32:42;;;;;;;4.03;0.45;;;9.70;99.90;;;;;;5020661;28;20042;-74
2022/11/22 02:35:25;;;;;;;2.25;0.43;;;9.60;99.90;;;;;;5019418;28;20175;-74
2022/11/22 02:38:09;;;;;;;3.33;0.60;;;9.70;99.90;;;;;;5022578;28;20100;-74
2022/11/22 02:40:52;;;;;;;2.65;0.25;;;9.60;99.90;;;;;;5026302;28;20133;-73
2022/11/22 02:43:21;;;;;;;2.50;0.35;;;9.60;99.90;;;;;;5026212;28;20029;-73
2022/11/22 02:45:46;;;;;;;1.63;0.32;;;9.50;99.90;;;;;;5020448;28;20416;-75
2022/11/22 02:48:15;;;;;;;2.03;0.40;;;9.40;99.90;;;;;;5020620;28;20042;-73
2022/11/22 02:50:42;;;;;;;3.67;0.32;;;9.30;99.90;;;;;;5039707;28;20060;-73
2022/11/22 02:53:10;;;;;;;2.13;0.30;;;9.40;99.90;;;;;;5023862;28;20033;-74
2022/11/22 02:55:36;;;;;;;1.17;0.22;;;9.40;99.90;;;;;;5006554;28;20029;-73
2022/11/22 02:58:04;;;;;;;1.85;0.30;;;9.30;99.90;;;;;;5021504;28;20034;-74
2022/11/22 03:00:31;;;;;;;2.38;0.40;;;9.30;99.90;;;;;;5023210;28;20029;-73
2022/11/22 03:02:56;;;;;;;4.25;0.50;;;9.40;99.90;;;;;;5022704;28;20037;-73
2022/11/22 03:05:23;;;;;;;1.05;0.20;;;9.30;99.90;;;;;;5024403;28;20038;-73
2022/11/22 03:07:49;;;;;;;2.05;0.30;;;9.30;99.90;;;;;;5031060;28;20033;-73
2022/11/22 03:10:16;;;;;;;3.92;0.30;;;9.30;99.90;;;;;;5026005;28;20042;-73
2022/11/22 03:12:42;;;;;;;2.25;0.40;;;9.30;99.90;;;;;;5030989;28;20092;-73
2022/11/22 03:15:08;;;;;;;2.10;0.40;;;9.20;99.90;;;;;;5022864;28;20554;-73
2022/11/22 03:17:34;;;;;;;2.97;0.40;;;9.10;99.90;;;;;;5024030;28;20046;-72
2022/11/22 03:20:00;;;;;;;2.53;0.43;;;9.20;99.90;;;;;;5020008;28;20653;-72
2022/11/22 03:22:25;;;;;;;1.95;0.40;;;9.10;99.90;;;;;;5023207;28;20504;-72
2022/11/22 03:24:52;;;;;;;3.10;0.40;;;9.10;99.90;;;;;;5021663;28;20042;-72
2022/11/22 03:27:18;;;;;;;1.25;0.40;;;9.10;99.90;;;;;;5022194;28;20042;-74
2022/11/22 03:29:44;;;;;;;3.47;0.60;;;9.10;99.90;;;;;;5026705;28;20432;-73
2022/11/22 03:32:10;;;;;;;2.03;0.20;;;9.00;99.90;;;;;;5020517;28;20121;-74
2022/11/22 03:34:36;;;;;;;4.45;0.50;;;9.00;99.90;;;;;;5028168;28;20048;-73
2022/11/22 03:37:02;;;;;;;2.53;0.40;;;8.90;99.90;;;;;;5023755;28;20894;-74
2022/11/22 03:39:27;;;;;;;1.35;0.55;;;8.90;99.90;;;;;;5022559;28;20033;-73
2022/11/22 03:41:55;;;;;;;1.10;0.30;;;8.90;99.90;;;;;;5022056;28;20065;-73
2022/11/22 03:44:21;;;;;;;1.17;0.20;;;8.80;99.90;;;;;;5022927;28;20049;-73
2022/11/22 03:46:48;;;;;;;1.83;0.25;;;8.80;99.90;;;;;;5019894;28;20099;-74
2022/11/22 03:49:13;;;;;;;1.05;0.22;;;8.90;99.90;;;;;;5021775;28;20112;-71
2022/11/22 03:51:39;;;;;;;2.30;0.50;;;9.00;99.90;;;;;;5019269;28;21157;-71
2022/11/22 03:54:05;;;;;;;3.50;0.30;;;8.90;99.90;;;;;;5025607;28;20033;-70
2022/11/22 03:56:31;;;;;;;2.63;0.35;;;8.90;99.90;;;;;;5024591;28;20034;-72
2022/11/22 03:58:57;;;;;;;1.38;0.17;;;8.90;99.90;;;;;;5016721;28;20491;-72
2022/11/22 04:01:23;;;;;;;1.77;0.30;;;8.80;99.90;;;;;;5023330;28;20053;-71
2022/11/22 04:03:49;;;;;;;1.45;0.35;;;8.90;99.90;;;;;;5038335;28;20029;-72
2022/11/22 04:06:15;;;;;;;0.90;0.22;;;8.90;99.90;;;;;;5016213;28;20036;-72
2022/11/22 04:08:41;;;;;;;3.67;0.40;;;8.80;99.90;;;;;;5023358;28;20068;-71
2022/11/22 04:11:08;;;;;;;2.05;0.32;;;8.90;99.90;;;;;;5021622;28;20128;-72
2022/11/22 04:16:19;;;;;;;2.45;0.20;;;8.90;99.90;;;;;;5022670;28;20053;-71
2022/11/22 04:18:45;;;;;;;2.67;0.43;;;8.90;99.90;;;;;;5022783;28;20058;-71
2022/11/22 04:26:40;;;;;;;1.45;0.28;;;8.80;99.90;;;;;;5019506;28;20137;-72
2022/11/22 04:29:06;;;;;;;0.77;0.20;;;8.90;99.90;;;;;;5017743;28;20097;-71
2022/11/22 04:34:17;;;;;;;0.95;0.30;;;8.90;99.90;;;;;;5024060;28;20039;-72
2022/11/22 04:36:42;;;;;;;3.88;0.40;;;8.80;99.90;;;;;;5020640;28;20068;-72
2022/11/22 04:39:08;;;;;;;2.00;0.30;;;8.90;99.90;;;;;;5017459;28;20065;-72
2022/11/22 04:41:34;;;;;;;0.35;0.10;;;9.00;99.90;;;;;;5021421;28;20044;-72
2022/11/22 04:46:44;;;;;;;1.80;0.10;;;8.90;99.90;;;;;;5020952;28;20129;-71
2022/11/22 04:49:10;;;;;;;1.33;0.40;;;8.90;99.90;;;;;;5018252;28;20041;-71
2022/11/22 04:54:21;;;;;;;1.75;0.30;;;8.90;99.90;;;;;;5016608;28;20082;-72
2022/11/22 04:56:47;;;;;;;2.10;0.47;;;8.90;99.90;;;;;;5014859;28;20045;-72
2022/11/22 04:59:13;;;;;;;2.05;0.45;;;8.90;99.90;;;;;;5018215;28;20033;-72
2022/11/22 05:01:38;;;;;;;2.83;0.28;;;8.90;99.90;;;;;;5024565;28;20037;-71
2022/11/22 05:04:04;;;;;;;3.13;0.28;;;8.80;99.90;;;;;;5016832;28;20038;-72
2022/11/22 05:06:30;;;;;;;1.92;0.38;;;8.80;99.90;;;;;;5021928;28;20041;-71
2022/11/22 05:08:56;;;;;;;1.48;0.20;;;8.80;99.90;;;;;;5028143;28;20045;-72
2022/11/22 05:11:22;;;;;;;1.58;0.28;;;8.80;99.90;;;;;;5032112;28;20671;-71
2022/11/22 05:13:47;;;;;;;2.95;0.40;;;8.90;99.90;;;;;;5017807;28;20037;-71
2022/11/22 05:16:14;;;;;;;2.55;0.40;;;8.80;99.90;;;;;;5022918;28;20029;-72
2022/11/22 05:18:41;;;;;;;4.18;0.40;;;8.70;99.90;;;;;;5020834;28;20057;-72
2022/11/22 05:21:09;;;;;;;2.28;0.52;;;8.70;99.90;;;;;;5006477;28;20033;-71
2022/11/22 05:23:55;;;;;;;2.35;0.38;;;8.70;99.90;;;;;;5024401;28;20141;-71
2022/11/22 05:26:33;;;;;;;3.20;0.60;;;8.70;99.90;;;;;;5024713;28;20431;-71
2022/11/22 05:29:02;;;;;;;2.17;0.70;;;8.70;99.90;;;;;;5020476;28;20030;-70
2022/11/22 05:31:28;;;;;;;1.45;0.52;;;8.70;99.90;;;;;;5021684;28;20029;-70
2022/11/22 05:33:56;;;;;;;3.33;0.50;;;8.70;99.90;;;;;;5025490;28;20091;-71
2022/11/22 05:36:22;;;;;;;1.70;0.22;;;8.80;99.90;;;;;;5021925;28;20119;-71
2022/11/22 05:38:48;;;;;;;2.30;0.77;;;8.80;99.90;;;;;;5020044;28;20097;-71
2022/11/22 05:41:16;;;;;;;2.45;0.60;;;8.80;99.90;;;;;;5020664;28;20124;-72
2022/11/22 05:43:42;;;;;;;4.47;0.50;;;8.80;99.90;;;;;;5023108;28;20041;-71
2022/11/22 05:46:17;;;;;;;1.85;0.30;;;8.90;99.90;;;;;;5020353;28;20120;-73
2022/11/22 05:48:45;;;;;;;1.15;0.20;;;8.80;99.90;;;;;;5016090;28;20056;-71
2022/11/22 05:51:16;;;;;;;1.50;0.50;;;8.80;99.90;;;;;;5021420;28;20550;-71
2022/11/22 05:53:44;;;;;;;2.10;0.68;;;8.90;99.90;;;;;;5019807;28;20468;-71
2022/11/22 05:56:18;;;;;;;1.75;0.60;;;8.90;99.90;;;;;;5019859;28;20063;-71
2022/11/22 05:58:44;;;;;;;2.40;0.30;;;8.90;99.90;;;;;;5017550;28;20069;-71
2022/11/22 06:01:13;;;;;;;1.10;0.40;;;9.00;99.90;;;;;;5020058;28;20473;-71
2022/11/22 06:03:39;;;;;;;2.10;0.43;;;8.90;99.90;;;;;;5019483;28;20037;-72
2022/11/22 06:06:06;;;;;;;1.55;0.40;;;8.90;99.90;;;;;;5004273;28;20041;-72
2022/11/22 06:08:34;;;;;;;2.80;0.38;;;8.90;99.90;;;;;;5033703;28;20342;-71
2022/11/22 06:11:08;;;;;;;1.10;0.28;;;8.90;99.90;;;;;;5018439;28;20117;-72
2022/11/22 06:13:36;;;;;;;2.60;0.55;;;8.90;99.90;;;;;;5018777;28;20221;-71
2022/11/22 06:16:03;;;;;;;2.95;0.40;;;8.90;99.90;;;;;;5021877;28;20026;-72
2022/11/22 06:18:29;;;;;;;2.05;0.80;;;8.90;99.90;;;;;;5014857;28;20450;-72
2022/11/22 06:21:11;;;;;;;3.47;0.32;;;8.90;99.90;;;;;;5021470;28;20124;-71
2022/11/22 06:23:37;;;;;;;1.92;0.45;;;8.90;99.90;;;;;;5020527;28;20121;-72
2022/11/22 06:26:05;;;;;;;1.40;0.20;;;9.00;99.90;;;;;;5016569;28;20112;-71
2022/11/22 06:28:33;;;;;;;3.90;0.40;;;8.90;99.90;;;;;;5022771;28;20487;-72
2022/11/22 06:31:03;;;;;;;3.67;0.60;;;8.90;99.90;;;;;;5022017;28;20048;-73
2022/11/22 06:33:28;;;;;;;1.85;0.75;;;8.90;99.90;;;;;;5016725;28;20499;-72
2022/11/22 06:36:04;;;;;;;4.80;0.55;;;8.90;99.90;;;;;;5019322;28;20026;-71
2022/11/22 06:38:30;;;;;;;5.30;0.60;;;9.00;99.90;;;;;;5014664;28;20030;-73
2022/11/22 06:41:00;;;;;;;1.77;0.30;;;8.90;99.90;;;;;;5020997;28;20516;-71
2022/11/22 06:43:28;;;;;;;1.52;0.38;;;8.90;99.90;;;;;;5021364;28;20032;-70
2022/11/22 06:45:56;;;;;;;3.80;0.50;;;8.90;99.90;;;;;;5021406;28;20034;-72
2022/11/22 06:48:22;;;;;;;6.80;2.80;;;8.90;99.90;;;;;;5017578;28;20037;-71
2022/11/22 06:50:47;;;;;;;3.05;0.60;;;8.80;99.90;;;;;;5027720;28;20041;-71
2022/11/22 06:53:14;;;;;;;5.50;0.45;;;8.80;99.90;;;;;;5022376;28;20044;-71
2022/11/22 06:55:40;;;;;;;3.40;0.50;;;8.80;99.90;;;;;;5022418;28;20044;-72
2022/11/22 06:58:06;;;;;;;5.95;0.88;;;8.80;99.90;;;;;;5020425;28;20523;-71
2022/11/22 07:00:33;;;;;;;3.13;0.40;;;8.80;99.90;;;;;;5021043;28;20129;-72
2022/11/22 07:02:59;;;;;;;3.35;0.50;;;8.70;99.90;;;;;;5020691;28;20034;-71
2022/11/22 07:05:24;;;;;;;4.40;0.70;;;8.80;99.90;;;;;;5019834;28;20371;-71
2022/11/22 07:07:50;;;;;;;1.80;0.40;;;8.80;99.90;;;;;;5022601;28;21008;-73
2022/11/22 07:10:16;;;;;;;3.95;0.52;;;8.80;99.90;;;;;;5022906;28;20496;-71
2022/11/22 07:12:42;;;;;;;1.45;0.40;;;8.90;99.90;;;;;;5017908;28;20038;-71
2022/11/22 07:15:08;;;;;;;3.83;0.40;;;8.90;99.90;;;;;;5019229;28;20049;-73
2022/11/22 07:17:34;;;;;;;2.83;0.52;;;8.90;99.90;;;;;;5022238;28;20034;-72
2022/11/22 07:20:00;;;;;;;2.05;0.50;;;9.00;99.90;;;;;;5020924;28;20098;-72
2022/11/22 07:22:27;;;;;;;1.73;0.40;;;9.00;99.90;;;;;;5022262;28;20139;-71
2022/11/22 07:24:53;;;;;;;5.78;0.65;;;9.00;99.90;;;;;;5023202;28;20049;-71
2022/11/22 07:27:18;;;;;;;2.28;0.40;;;9.00;99.90;;;;;;5020579;28;20029;-72
2022/11/22 07:29:44;;;;;;;3.08;0.50;;;9.10;99.90;;;;;;5023222;28;20050;-71
2022/11/22 07:32:10;;;;;;;4.43;0.50;;;9.30;99.90;;;;;;5022827;28;20041;-71
2022/11/22 07:34:36;;;;;;;1.98;0.40;;;9.30;99.90;;;;;;5020679;28;20033;-72
2022/11/22 07:37:01;;;;;;;4.43;0.40;;;9.30;99.90;;;;;;5019926;28;20053;-72
2022/11/22 07:39:27;;;;;;;2.25;0.30;;;9.30;99.90;;;;;;5021793;28;20088;-71
2022/11/22 07:41:53;;;;;;;2.80;0.30;;;9.40;99.90;;;;;;5023078;28;20049;-71
2022/11/22 07:44:19;;;;;;;3.30;0.38;;;9.40;99.90;;;;;;5021683;28;20120;-71
2022/11/22 07:46:46;;;;;;;3.30;0.57;;;9.40;99.90;;;;;;5019243;28;20037;-72
2022/11/22 07:49:12;;;;;;;2.13;0.63;;;9.50;99.90;;;;;;5026058;28;20396;-72
2022/11/22 07:51:38;;;;;;;2.63;0.40;;;9.50;99.90;;;;;;5021046;28;20042;-71
2022/11/22 07:54:04;;;;;;;6.53;0.60;;;9.50;99.90;;;;;;5019538;28;20042;-70
2022/11/22 07:56:29;;;;;;;1.90;0.25;;;9.60;99.90;;;;;;5021143;28;20030;-72
2022/11/22 07:58:57;;;;;;;5.65;1.00;;;9.70;99.90;;;;;;5012573;28;20056;-71
2022/11/22 08:01:23;;;;;;;2.95;0.40;;;9.70;99.90;;;;;;5022174;28;20049;-72
2022/11/22 08:03:49;;;;;;;5.13;0.60;;;9.80;99.90;;;;;;5022638;28;20041;-71
2022/11/22 08:06:15;;;;;;;5.63;0.80;;;10.10;99.90;;;;;;5035489;28;20037;-72
2022/11/22 08:08:41;;;;;;;3.17;0.75;;;11.40;99.90;;;;;;5019259;28;20088;-71
2022/11/22 08:11:08;;;;;;;3.80;0.50;;;12.00;99.90;;;;;;5014234;28;20565;-72
2022/11/22 08:13:35;;;;;;;2.70;0.50;;;12.40;99.50;;;;;;5018733;28;20038;-71
2022/11/22 08:16:06;;;;;;;1.85;0.60;;;13.80;98.20;;;;;;5020645;28;20038;-71
2022/11/22 08:18:34;;;;;;;6.05;0.80;;;13.40;97.90;;;;;;5017122;28;20067;-74
2022/11/22 08:21:11;;;;;;;7.82;1.50;;;13.60;98.00;;;;;;5021601;28;20044;-71
2022/11/22 08:23:38;;;;;;;2.33;0.70;;;13.50;97.70;;;;;;5017826;28;20062;-72
2022/11/22 08:26:04;;;;;;;14.85;1.73;;;13.60;97.30;;;;;;5021281;28;20089;-71
2022/11/22 08:28:31;;;;;;;4.30;1.23;;;12.80;98.10;;;;;;5020564;28;20084;-71
2022/11/22 08:31:14;;;;;;;4.47;1.10;;;13.30;98.00;;;;;;5022131;28;20543;-72
2022/11/22 08:33:40;;;;;;;3.58;0.90;;;13.10;97.90;;;;;;5018120;28;20042;-72
2022/11/22 08:36:06;;;;;;;3.97;1.15;;;13.50;97.70;;;;;;5019605;28;20091;-72
2022/11/22 08:38:33;;;;;;;4.32;0.98;;;13.60;97.20;;;;;;5035573;28;20612;-72
2022/11/22 08:40:59;;;;;;;4.13;1.15;;;12.80;97.90;;;;;;5025112;28;20033;-72
2022/11/22 08:43:25;;;;;;;5.55;0.60;;;12.80;98.20;;;;;;5019473;28;20056;-72
2022/11/22 08:45:57;;;;;;;4.00;0.65;;;12.20;98.30;;;;;;5019234;28;20828;-73
2022/11/22 08:48:27;;;;;;;3.08;1.10;;;11.80;98.60;;;;;;5029473;28;20382;-70
2022/11/22 08:50:56;;;;;;;3.30;0.60;;;11.90;99.40;;;;;;5019737;28;20049;-72
2022/11/22 08:53:22;;;;;;;3.47;0.82;;;11.90;98.90;;;;;;5033381;28;20034;-72
2022/11/22 08:55:48;;;;;;;2.80;0.63;;;12.30;98.90;;;;;;5021048;28;20033;-71
2022/11/22 08:58:13;;;;;;;3.28;0.70;;;12.10;98.70;;;;;;5016886;28;20036;-71
2022/11/22 09:00:40;;;;;;;3.67;0.60;;;12.30;98.40;;;;;;5019677;28;20107;-72
2022/11/22 09:03:05;;;;;;;4.18;0.70;;;12.50;98.30;;;;;;5009369;28;20677;-72
2022/11/22 09:05:31;;;;;;;6.57;1.10;;;12.90;98.10;;;;;;5003875;28;20037;-72
2022/11/22 09:07:58;;;;;;;4.18;0.60;;;12.70;98.00;;;;;;5007681;28;20057;-72
2022/11/22 09:10:24;;;;;;;3.65;0.70;;;12.30;98.30;;;;;;5010584;28;20509;-72
2022/11/22 09:12:50;;;;;;;6.68;0.93;;;12.00;98.80;;;;;;5017081;28;20091;-72
2022/11/22 09:15:16;;;;;;;2.38;0.68;;;12.00;98.70;;;;;;5016462;28;20095;-71
2022/11/22 09:17:42;;;;;;;6.40;0.75;;;11.90;98.50;;;;;;5014966;28;20049;-71
2022/11/22 09:20:10;;;;;;;2.58;0.52;;;11.90;98.70;;;;;;5013977;28;20132;-70
2022/11/22 09:22:36;;;;;;;4.43;0.70;;;12.40;98.60;;;;;;5015304;28;20087;-70
2022/11/22 09:25:04;;;;;;;4.45;1.05;;;13.00;97.20;;;;;;5015178;28;20491;-71
2022/11/22 09:27:30;;;;;;;4.25;0.77;;;13.00;97.60;;;;;;5014172;28;20369;-72
2022/11/22 09:29:58;;;;;;;5.47;1.10;;;13.20;97.40;;;;;;4997131;28;20520;-72
2022/11/22 09:32:24;;;;;;;3.65;0.50;;;12.70;97.50;;;;;;5018993;28;20046;-72
2022/11/22 09:34:50;;;;;;;3.92;0.70;;;12.40;97.70;;;;;;5017363;28;20557;-71
2022/11/22 09:37:18;;;;;;;2.83;0.70;;;12.20;97.80;;;;;;5011676;28;20060;-71
2022/11/22 09:39:48;;;;;;;3.10;0.50;;;12.20;98.00;;;;;;5020313;28;20068;-71
2022/11/22 09:42:34;;;;;;;3.05;0.60;;;12.40;97.90;;;;;;5014330;28;20045;-71
2022/11/22 09:45:21;;;;;;;4.63;1.55;;;12.40;97.70;;;;;;5018531;28;20449;-71
2022/11/22 09:47:59;;;;;;;5.90;1.35;;;12.30;97.80;;;;;;5014585;28;20042;-71
2022/11/22 09:50:31;;;;;;;12.80;1.52;;;12.40;97.40;;;;;;5001123;28;20107;-71
2022/11/22 09:53:04;;;;;;;10.45;1.13;;;12.00;97.80;;;;;;5016111;28;20029;-73
2022/11/22 09:55:39;;;;;;;6.57;0.93;;;11.90;98.00;;;;;;5017731;28;20040;-73
2022/11/22 09:58:39;;;;;;;2.55;0.60;;;12.00;97.80;;;;;;5015440;28;20493;-73
2022/11/22 10:01:30;;;;;;;4.13;0.70;;;12.20;97.60;;;;;;5018423;28;20052;-74
2022/11/22 10:04:04;;;;;;;3.90;0.77;;;12.60;97.50;;;;;;5017867;28;20064;-73
2022/11/22 10:06:39;;;;;;;5.15;0.82;;;12.60;97.00;;;;;;5017135;28;20124;-73
2022/11/22 10:09:08;;;;;;;5.35;0.70;;;12.50;97.00;;;;;;5021959;28;20030;-73
2022/11/22 10:12:08;;;;;;;3.88;0.40;;;12.40;97.20;;;;;;5002246;28;20076;-74
2022/11/22 10:14:40;;;;;;;5.05;0.80;;;12.70;96.90;;;;;;4958727;28;20068;-73
2022/11/22 10:17:28;;;;;;;3.00;0.70;;;12.80;96.80;;;;;;5018346;28;20121;-73
2022/11/22 10:20:16;;;;;;;6.25;0.98;;;13.20;96.70;;;;;;5016695;28;20049;-72
2022/11/22 10:22:42;;;;;;;2.03;0.63;;;13.60;95.90;;;;;;5020405;28;20477;-73
2022/11/22 10:25:41;;;;;;;5.65;0.90;;;14.20;95.50;;;;;;5017428;28;20034;-72
2022/11/22 10:28:35;;;;;;;6.07;1.00;;;15.00;95.10;;;;;;4966525;28;20033;-73
2022/11/22 10:31:11;;;;;;;4.03;1.20;;;15.10;94.60;;;;;;5014458;28;20156;-73
2022/11/22 10:34:05;;;;;;;2.55;0.68;;;15.00;94.80;;;;;;5018175;28;20038;-74
2022/11/22 10:36:34;;;;;;;6.93;1.17;;;14.70;94.00;;;;;;5031604;28;20052;-73
2022/11/22 10:39:21;;;;;;;2.97;1.05;;;15.70;93.90;;;;;;5015122;28;20396;-73
2022/11/22 10:42:11;;;;;;;3.33;1.05;;;15.20;93.50;;;;;;5017480;28;20120;-73
2022/11/22 10:45:14;;;;;;;5.22;0.73;;;15.10;93.70;;;;;;5023555;28;20037;-74
2022/11/22 10:48:19;;;;;;;3.10;0.80;;;14.10;94.10;;;;;;5020582;28;20034;-73
2022/11/22 10:51:18;;;;;;;5.15;1.38;;;13.90;93.90;;;;;;5014317;28;20068;-74
2022/11/22 10:54:04;;;;;;;5.38;0.73;;;13.90;94.30;;;;;;5019300;28;20053;-72
2022/11/22 10:56:36;;;;;;;7.57;1.27;;;14.30;94.20;;;;;;5001249;28;20046;-73
2022/11/22 10:59:20;;;;;;;3.45;0.63;;;15.80;93.50;;;;;;5020322;28;20028;-74
2022/11/22 11:01:49;;;;;;;4.93;1.05;;;15.50;93.10;;;;;;5019449;28;20033;-75
2022/11/22 11:04:15;;;;;;;4.03;1.40;;;16.10;92.90;;;;;;4987830;28;20388;-73
2022/11/22 11:06:44;;;;;;;5.32;1.70;;;16.70;92.20;;;;;;5020952;28;20431;-74
2022/11/22 11:09:21;;;;;;;5.20;0.82;;;16.70;92.30;;;;;;5021660;28;20621;-73
2022/11/22 11:11:50;;;;;;;5.07;1.00;;;15.30;92.40;;;;;;5018203;28;20038;-74
2022/11/22 11:14:44;;;;;;;5.82;0.93;;;14.80;93.20;;;;;;5017757;28;20040;-73
2022/11/22 11:17:17;;;;;;;3.85;0.70;;;14.20;93.40;;;;;;5006735;28;20026;-74
2022/11/22 11:19:48;;;;;;;8.90;1.20;;;13.90;94.20;;;;;;5015829;28;20046;-73
2022/11/22 11:22:25;;;;;;;4.18;0.60;;;13.90;94.20;;;;;;5015453;28;20041;-74
2022/11/22 11:24:51;;;;;;;3.17;0.60;;;13.70;94.30;;;;;;5019026;28;20107;-74
2022/11/22 11:27:19;;;;;;;4.80;0.93;;;13.40;94.60;;;;;;5019787;28;20042;-74
2022/11/22 11:30:02;;;;;;;3.42;0.50;;;13.20;94.70;;;;;;5016126;28;20041;-74
2022/11/22 11:32:28;;;;;;;4.93;0.73;;;13.00;95.00;;;;;;5022465;28;20036;-73
2022/11/22 11:35:04;;;;;;;12.20;1.40;;;12.80;95.10;;;;;;5020790;28;20045;-73
2022/11/22 11:37:36;;;;;;;2.63;0.57;;;12.70;95.30;;;;;;5019441;28;20041;-73
2022/11/22 11:40:05;;;;;;;3.72;0.52;;;12.60;95.30;;;;;;5033227;28;20172;-73
2022/11/22 11:42:33;;;;;;;3.05;1.10;;;12.80;95.40;;;;;;5024193;28;20385;-73
2022/11/22 11:45:26;;;;;;;6.55;0.65;;;12.70;95.30;;;;;;5021307;28;20034;-73
2022/11/22 11:47:52;;;;;;;3.08;0.60;;;12.80;95.40;;;;;;5021599;28;20046;-73
2022/11/22 11:50:26;;;;;;;2.33;0.50;;;12.90;95.30;;;;;;5022103;28;20052;-74
2022/11/22 11:53:03;;;;;;;4.50;0.70;;;13.00;95.20;;;;;;5036658;28;20049;-74
2022/11/22 11:55:36;;;;;;;10.95;1.00;;;12.90;95.20;;;;;;5022828;28;20060;-73
2022/11/22 11:58:02;;;;;;;;;;;13.00;95.50;;;;;;5028080;28;20052;-73
2022/11/22 12:00:38;;;;;;;2.17;0.70;;;13.20;95.30;;;;;;5017514;28;19917;-74
2022/11/22 12:03:07;;;;;;;4.97;0.80;;;13.00;95.30;;;;;;5019551;28;20733;-73
2022/11/22 12:05:33;;;;;;;5.15;0.80;;;13.10;95.30;;;;;;5020623;28;20038;-74
2022/11/22 12:08:00;;;;;;;9.10;0.95;;;13.10;95.40;;;;;;5024678;28;20037;-73
2022/11/22 12:10:30;;;;;;;5.75;0.75;;;13.10;95.40;;;;;;5021178;28;20045;-72
2022/11/22 12:13:02;;;;;;;4.82;0.65;;;13.40;95.20;;;;;;5017395;28;20042;-74
2022/11/22 12:15:34;;;;;;;4.47;0.70;;;13.50;95.00;;;;;;5017456;28;20057;-73
2022/11/22 12:18:21;;;;;;;3.78;0.95;;;13.60;94.90;;;;;;4995959;28;20042;-73
2022/11/22 12:21:07;;;;;;;5.25;0.60;;;13.70;94.90;;;;;;5018246;28;20037;-73
2022/11/22 12:23:55;;;;;;;2.38;0.57;;;14.10;94.50;;;;;;5018483;28;20053;-70
2022/11/22 12:26:21;;;;;;;6.55;0.80;;;14.50;94.20;;;;;;5012616;28;20052;-72
2022/11/22 12:28:48;;;;;;;3.50;0.95;;;14.40;94.30;;;;;;5015907;28;20481;-71
2022/11/22 12:31:46;;;;;;;4.97;0.80;;;15.30;93.60;;;;;;5013684;28;20057;-71
2022/11/22 12:34:34;;;;;;;3.15;0.98;;;14.70;93.80;;;;;;5006662;28;20100;-71
2022/11/22 12:37:13;;;;;;;7.32;0.98;;;14.60;94.30;;;;;;5012826;28;20470;-71
2022/11/22 12:39:49;;;;;;;5.47;0.85;;;14.80;94.10;;;;;;5012847;28;20180;-70
2022/11/22 12:42:18;;;;;;;5.80;1.27;;;14.90;94.10;;;;;;5011795;28;20034;-71
2022/11/22 12:44:53;;;;;;;6.25;0.82;;;14.70;94.10;;;;;;5020041;28;20038;-71
2022/11/22 12:47:26;;;;;;;5.22;1.00;;;14.80;94.20;;;;;;5017065;28;20042;-70
2022/11/22 12:49:58;;;;;;;4.35;0.85;;;14.90;94.00;;;;;;5021874;28;20041;-70
2022/11/22 12:52:28;;;;;;;5.97;0.95;;;14.60;94.10;;;;;;5016236;28;20052;-71
2022/11/22 12:55:13;;;;;;;7.00;0.82;;;14.30;94.40;;;;;;5030672;28;20034;-71
2022/11/22 12:57:58;;;;;;;7.97;1.10;;;14.00;94.70;;;;;;5005814;28;20510;-71
2022/11/22 13:00:29;;;;;;;12.68;1.00;;;14.00;94.70;;;;;;5006573;28;25575;-75
2022/11/22 13:03:14;;;;;;;6.75;0.80;;;14.10;94.80;;;;;;5017027;28;20500;-73
2022/11/22 13:05:48;;;;;;;4.22;0.80;;;14.00;94.80;;;;;;5010876;28;20033;-74
2022/11/22 13:08:30;;;;;;;6.28;1.02;;;13.80;94.60;;;;;;5014885;28;20477;-75
2022/11/22 13:11:11;;;;;;;5.75;0.60;;;14.00;94.80;;;;;;5017550;28;20049;-76
2022/11/22 13:13:44;;;;;;;6.68;0.77;;;13.90;94.60;;;;;;5002246;28;20043;-73
2022/11/22 13:16:11;;;;;;;4.57;0.52;;;14.00;94.50;;;;;;5020006;28;20029;-72
2022/11/22 13:18:45;;;;;;;5.68;0.90;;;14.10;94.50;;;;;;5034536;28;20679;-75
2022/11/22 13:21:29;;;;;;;3.85;0.90;;;14.10;94.40;;;;;;5021020;28;20053;-74